Time;durP1;ratioP1;P1;durP2;ratioP2;P2;SDS_P1;SDS_P2;PMS_P1;PMS_P2;Temp;Humidity;BMP_temperature;BMP_pressure;BME280_temperature;BME280_humidity;BME280_pressure;Samples;Min_cycle;Max_cycle;Signal;HPM_P1;HPM_P2
2023/08/30 00:00:38;;;;;;;19.35;17.48;;;13.70;99.90;;;;;;5056168;28;20043;-40
2023/08/30 00:03:05;;;;;;;19.90;18.00;;;13.70;99.90;;;;;;5053909;28;20059;-40
2023/08/30 00:05:31;;;;;;;20.80;18.70;;;13.70;99.90;;;;;;5070400;28;20059;-40
2023/08/30 00:07:57;;;;;;;20.13;18.10;;;13.70;99.90;;;;;;5075472;28;20044;-40
2023/08/30 00:10:23;;;;;;;19.10;17.38;;;13.60;99.90;;;;;;5074007;28;20039;-39
2023/08/30 00:12:48;;;;;;;20.00;18.15;;;13.60;99.90;;;;;;5063446;28;20432;-40
2023/08/30 00:15:14;;;;;;;20.67;18.85;;;13.60;99.90;;;;;;5076009;28;20097;-40
2023/08/30 00:17:40;;;;;;;19.77;17.88;;;13.50;99.90;;;;;;5074807;28;20040;-39
2023/08/30 00:20:06;;;;;;;19.33;17.60;;;13.50;99.90;;;;;;5075600;28;20449;-39
2023/08/30 00:22:33;;;;;;;19.00;17.10;;;13.50;99.90;;;;;;5060016;28;20045;-40
2023/08/30 00:24:59;;;;;;;19.48;17.60;;;13.40;99.90;;;;;;5064928;28;20470;-40
2023/08/30 00:27:24;;;;;;;19.27;17.42;;;13.40;99.90;;;;;;5066451;28;20052;-39
2023/08/30 00:29:50;;;;;;;18.92;17.13;;;13.50;99.90;;;;;;5073454;28;20042;-39
2023/08/30 00:32:16;;;;;;;19.40;17.77;;;13.40;99.90;;;;;;5079338;28;20044;-40
2023/08/30 00:34:41;;;;;;;19.05;17.25;;;13.40;99.90;;;;;;5076664;28;20067;-40
2023/08/30 00:37:08;;;;;;;19.20;17.20;;;13.40;99.90;;;;;;5080111;28;20132;-40
2023/08/30 00:39:34;;;;;;;18.75;17.05;;;13.40;99.90;;;;;;5078336;28;20087;-40
2023/08/30 00:42:04;;;;;;;18.67;16.85;;;13.50;99.90;;;;;;5080454;28;20453;-39
2023/08/30 00:44:30;;;;;;;19.27;17.48;;;13.40;99.90;;;;;;5075302;28;20519;-40
2023/08/30 00:46:56;;;;;;;18.60;16.85;;;13.40;99.90;;;;;;5056597;28;20626;-40
2023/08/30 00:49:21;;;;;;;17.98;16.27;;;13.50;99.90;;;;;;5075477;28;20058;-40
2023/08/30 00:51:47;;;;;;;17.88;16.17;;;13.40;99.90;;;;;;5052277;28;20379;-40
2023/08/30 00:54:13;;;;;;;18.77;16.95;;;13.40;99.90;;;;;;5067602;28;20382;-39
2023/08/30 00:56:38;;;;;;;16.38;14.80;;;13.50;99.90;;;;;;5079622;28;20040;-39
2023/08/30 00:59:04;;;;;;;16.50;14.90;;;13.50;99.90;;;;;;5079122;28;20669;-40
2023/08/30 01:01:30;;;;;;;16.08;14.68;;;13.40;99.90;;;;;;5080183;28;20051;-39
2023/08/30 01:03:56;;;;;;;16.67;14.98;;;13.40;99.90;;;;;;5065714;28;20048;-40
2023/08/30 01:06:22;;;;;;;16.40;14.82;;;13.40;99.90;;;;;;5079892;28;20055;-39
2023/08/30 01:08:47;;;;;;;17.52;15.93;;;13.40;99.90;;;;;;5077611;28;20047;-40
2023/08/30 01:11:19;;;;;;;18.40;15.02;;;13.40;99.90;;;;;;5065857;28;20111;-39
2023/08/30 01:13:55;;;;;;;17.83;16.15;;;13.40;99.90;;;;;;5078106;28;20071;-40
2023/08/30 01:16:23;;;;;;;17.30;15.60;;;13.30;99.90;;;;;;5079006;28;20792;-39
2023/08/30 01:18:51;;;;;;;17.35;15.65;;;13.30;99.90;;;;;;5065350;28;20040;-40
2023/08/30 01:21:40;;;;;;;15.35;14.05;;;13.30;99.90;;;;;;5068213;28;20560;-40
2023/08/30 01:24:08;;;;;;;16.63;15.02;;;13.20;99.90;;;;;;5052055;28;20056;-39
2023/08/30 01:26:58;;;;;;;16.70;15.18;;;13.10;99.90;;;;;;5077766;28;20056;-40
2023/08/30 01:29:25;;;;;;;17.05;15.23;;;13.10;99.90;;;;;;5078182;28;20050;-40
2023/08/30 01:31:51;;;;;;;15.82;14.32;;;12.90;99.90;;;;;;5079222;28;20044;-39
2023/08/30 01:34:18;;;;;;;16.58;14.88;;;12.90;99.90;;;;;;5076880;28;20048;-39
2023/08/30 01:36:44;;;;;;;16.67;14.88;;;12.80;99.90;;;;;;5076609;28;20048;-40
2023/08/30 01:39:14;;;;;;;15.88;14.38;;;12.80;99.90;;;;;;5077799;28;20040;-39
2023/08/30 01:41:41;;;;;;;16.02;14.52;;;12.80;99.90;;;;;;5076831;28;20428;-39
2023/08/30 01:44:07;;;;;;;15.68;14.07;;;12.70;99.90;;;;;;5078041;28;20044;-40
2023/08/30 01:46:34;;;;;;;16.35;14.80;;;12.70;99.90;;;;;;5045275;28;20536;-40
2023/08/30 01:49:04;;;;;;;15.38;13.88;;;12.60;99.90;;;;;;5057489;28;20509;-40
2023/08/30 01:51:31;;;;;;;17.75;16.00;;;12.50;99.90;;;;;;5054744;28;20065;-39
2023/08/30 01:53:58;;;;;;;16.58;14.85;;;12.50;99.90;;;;;;5050359;28;20493;-40
2023/08/30 01:56:23;;;;;;;16.40;14.90;;;12.50;99.90;;;;;;5058369;28;20044;-39
2023/08/30 01:58:49;;;;;;;16.40;14.80;;;12.40;99.90;;;;;;5070711;28;20549;-39
2023/08/30 02:01:15;;;;;;;16.50;15.00;;;12.40;99.90;;;;;;5059349;28;20068;-39
2023/08/30 02:03:44;;;;;;;16.65;14.95;;;12.30;99.90;;;;;;5048138;28;20550;-39
2023/08/30 02:06:30;;;;;;;17.15;15.25;;;12.30;99.90;;;;;;5075541;28;20565;-39
2023/08/30 02:09:04;;;;;;;16.35;14.73;;;12.30;99.90;;;;;;5075612;28;20047;-39
2023/08/30 02:11:34;;;;;;;17.30;15.63;;;12.20;99.90;;;;;;5077832;28;20566;-39
2023/08/30 02:14:00;;;;;;;16.85;15.15;;;12.20;99.90;;;;;;5077089;28;20248;-39
2023/08/30 02:16:27;;;;;;;18.27;16.42;;;12.20;99.90;;;;;;5078283;28;20067;-40
2023/08/30 02:18:54;;;;;;;17.38;15.70;;;12.10;99.90;;;;;;5076703;28;20047;-39
2023/08/30 02:21:20;;;;;;;16.42;14.73;;;12.10;99.90;;;;;;5078432;28;20332;-39
2023/08/30 02:23:52;;;;;;;16.55;14.82;;;12.10;99.90;;;;;;5058467;28;20047;-39
2023/08/30 02:26:20;;;;;;;17.38;15.57;;;12.10;99.90;;;;;;5057972;28;20549;-39
2023/08/30 02:28:46;;;;;;;16.27;14.77;;;12.10;99.90;;;;;;5056907;28;20487;-39
2023/08/30 02:31:12;;;;;;;18.65;16.83;;;12.00;99.90;;;;;;5057417;28;20041;-39
2023/08/30 02:33:38;;;;;;;16.65;15.13;;;12.00;99.90;;;;;;5056471;28;20050;-39
2023/08/30 02:36:04;;;;;;;16.77;15.07;;;12.00;99.90;;;;;;5056960;28;20048;-39
2023/08/30 02:38:30;;;;;;;17.73;15.90;;;12.00;99.90;;;;;;5056363;28;20114;-40
2023/08/30 02:40:56;;;;;;;17.73;16.00;;;11.90;99.90;;;;;;5056932;28;20036;-39
2023/08/30 02:43:22;;;;;;;18.25;16.45;;;11.90;99.90;;;;;;5056092;28;20048;-39
2023/08/30 02:45:47;;;;;;;18.25;16.08;;;11.90;99.90;;;;;;5044990;28;20433;-40
2023/08/30 02:48:14;;;;;;;21.55;16.98;;;11.90;99.90;;;;;;5073723;28;20044;-39
2023/08/30 02:50:40;;;;;;;18.58;16.77;;;11.80;99.90;;;;;;5075044;28;20503;-40
2023/08/30 02:53:08;;;;;;;17.67;15.85;;;11.80;99.90;;;;;;5054462;28;20048;-39
2023/08/30 02:55:34;;;;;;;18.67;16.73;;;11.90;99.90;;;;;;5077158;28;20178;-39
2023/08/30 02:58:00;;;;;;;18.88;16.92;;;11.90;99.90;;;;;;5076543;28;20051;-39
2023/08/30 03:00:26;;;;;;;18.35;16.38;;;12.00;99.90;;;;;;5076496;28;20048;-39
2023/08/30 03:02:52;;;;;;;17.45;15.75;;;12.10;99.90;;;;;;5075307;28;20052;-39
2023/08/30 03:05:18;;;;;;;21.52;17.05;;;12.20;99.90;;;;;;5070404;28;20052;-39
2023/08/30 03:07:44;;;;;;;18.88;17.08;;;12.20;99.90;;;;;;5076500;28;20379;-39
2023/08/30 03:10:11;;;;;;;22.23;16.75;;;12.30;99.90;;;;;;5071094;28;20441;-39
2023/08/30 03:12:37;;;;;;;20.17;18.08;;;12.30;99.90;;;;;;5062666;28;20052;-39
2023/08/30 03:15:04;;;;;;;18.27;16.38;;;12.40;99.90;;;;;;5076555;28;20075;-39
2023/08/30 03:17:30;;;;;;;20.38;18.10;;;12.50;99.90;;;;;;5076598;28;20079;-39
2023/08/30 03:19:55;;;;;;;18.80;16.92;;;12.50;99.90;;;;;;5075956;28;20150;-40
2023/08/30 03:22:21;;;;;;;18.80;16.42;;;12.60;99.90;;;;;;5063608;28;20382;-39
2023/08/30 03:24:47;;;;;;;20.52;18.25;;;12.60;99.90;;;;;;5062467;28;20048;-40
2023/08/30 03:27:13;;;;;;;18.25;16.48;;;12.60;99.90;;;;;;5076040;28;20478;-40
2023/08/30 03:29:38;;;;;;;20.33;16.48;;;12.60;99.90;;;;;;5074607;28;20048;-39
2023/08/30 03:32:04;;;;;;;20.15;17.95;;;12.70;99.90;;;;;;5075791;28;20047;-39
2023/08/30 03:34:30;;;;;;;20.77;18.63;;;12.70;99.90;;;;;;5076249;28;20180;-39
2023/08/30 03:36:56;;;;;;;18.83;16.85;;;12.70;99.90;;;;;;5076227;28;20048;-40
2023/08/30 03:39:23;;;;;;;18.60;16.80;;;12.70;99.90;;;;;;5075044;28;20047;-40
2023/08/30 03:41:49;;;;;;;19.77;17.77;;;12.70;99.90;;;;;;5076609;28;20051;-39
2023/08/30 03:44:15;;;;;;;19.08;17.00;;;12.70;99.90;;;;;;5074973;28;20048;-39
2023/08/30 03:46:41;;;;;;;22.23;18.25;;;12.60;99.90;;;;;;5042096;28;20592;-39
2023/08/30 03:49:06;;;;;;;19.50;16.98;;;12.70;99.90;;;;;;5066530;28;20125;-39
2023/08/30 03:51:32;;;;;;;18.67;16.70;;;12.70;99.90;;;;;;5055460;28;20410;-39
2023/08/30 03:53:57;;;;;;;18.20;16.33;;;12.80;99.90;;;;;;5061155;28;20043;-40
2023/08/30 03:56:23;;;;;;;17.50;15.82;;;12.80;99.90;;;;;;5075154;28;20080;-39
2023/08/30 03:58:49;;;;;;;17.73;15.15;;;12.90;99.90;;;;;;5064028;28;20127;-39
2023/08/30 04:01:14;;;;;;;17.63;15.77;;;12.90;99.90;;;;;;5065849;28;20900;-39
2023/08/30 04:03:40;;;;;;;18.50;16.50;;;12.90;99.90;;;;;;5074815;28;20201;-39
2023/08/30 04:06:06;;;;;;;17.70;15.93;;;13.00;99.90;;;;;;5060255;28;20487;-39
2023/08/30 04:08:32;;;;;;;17.73;15.07;;;13.00;99.90;;;;;;5073806;28;20051;-39
2023/08/30 04:10:58;;;;;;;17.25;15.45;;;13.10;99.90;;;;;;5048616;28;20109;-39
2023/08/30 04:13:24;;;;;;;17.40;15.60;;;13.10;99.90;;;;;;5048040;28;20048;-39
2023/08/30 04:15:51;;;;;;;17.92;16.02;;;13.10;99.90;;;;;;5074174;28;20052;-39
2023/08/30 04:18:17;;;;;;;17.60;15.77;;;13.10;99.90;;;;;;5075310;28;20510;-39
2023/08/30 04:20:46;;;;;;;17.35;15.75;;;13.10;99.90;;;;;;5075687;28;20105;-39
2023/08/30 04:23:12;;;;;;;18.38;16.30;;;13.10;99.90;;;;;;5060731;28;20408;-38
2023/08/30 04:25:38;;;;;;;17.42;15.65;;;13.10;99.90;;;;;;5055008;28;20072;-39
2023/08/30 04:28:04;;;;;;;18.40;16.42;;;13.10;99.90;;;;;;5055050;28;20120;-39
2023/08/30 04:30:30;;;;;;;18.55;16.50;;;13.00;99.90;;;;;;5055076;28;20180;-38
2023/08/30 04:32:55;;;;;;;19.23;17.27;;;13.00;99.90;;;;;;5054221;28;20040;-39
2023/08/30 04:35:21;;;;;;;19.80;17.27;;;13.00;99.90;;;;;;5055473;28;20052;-39
2023/08/30 04:37:48;;;;;;;18.75;16.85;;;13.00;99.90;;;;;;5054026;28;20045;-39
2023/08/30 04:40:14;;;;;;;19.00;17.08;;;13.00;99.90;;;;;;5055171;28;20044;-40
2023/08/30 04:42:39;;;;;;;20.30;16.75;;;13.00;99.90;;;;;;5054866;28;20451;-38
2023/08/30 04:45:06;;;;;;;19.08;15.75;;;13.10;99.90;;;;;;5049086;28;20045;-38
2023/08/30 04:47:32;;;;;;;20.33;16.92;;;13.10;99.90;;;;;;5062098;28;20052;-38
2023/08/30 04:49:58;;;;;;;18.45;16.58;;;13.10;99.90;;;;;;5041103;28;20123;-39
2023/08/30 04:52:24;;;;;;;16.92;15.23;;;13.10;99.90;;;;;;5043967;28;20048;-39
2023/08/30 04:54:49;;;;;;;16.58;14.82;;;13.20;99.90;;;;;;5055922;28;20506;-39
2023/08/30 04:57:16;;;;;;;17.83;16.08;;;13.20;99.90;;;;;;5052729;28;20899;-39
2023/08/30 04:59:42;;;;;;;18.10;16.30;;;13.20;99.90;;;;;;5055472;28;20045;-39
2023/08/30 05:02:08;;;;;;;18.77;16.67;;;13.20;99.90;;;;;;5068306;28;20052;-39
2023/08/30 05:04:33;;;;;;;17.45;15.65;;;13.20;99.90;;;;;;5075154;28;20051;-39
2023/08/30 05:06:59;;;;;;;18.90;16.80;;;13.20;99.90;;;;;;5073254;28;20040;-39
2023/08/30 05:09:25;;;;;;;18.45;16.58;;;13.20;99.90;;;;;;5075332;28;20047;-39
2023/08/30 05:11:51;;;;;;;17.80;16.05;;;13.20;99.90;;;;;;5075443;28;20047;-39
2023/08/30 05:14:17;;;;;;;18.27;16.50;;;13.20;99.90;;;;;;5074721;28;20047;-39
2023/08/30 05:16:42;;;;;;;18.73;16.73;;;13.20;99.90;;;;;;5078240;28;20047;-39
2023/08/30 05:19:08;;;;;;;18.92;17.02;;;13.20;99.90;;;;;;5078609;28;20040;-39
2023/08/30 05:21:34;;;;;;;17.08;14.80;;;13.20;99.90;;;;;;5079242;28;20048;-39
2023/08/30 05:24:00;;;;;;;18.90;17.00;;;13.20;99.90;;;;;;5058269;28;20471;-39
2023/08/30 05:26:25;;;;;;;18.15;16.35;;;13.30;99.90;;;;;;5058886;28;20399;-39
2023/08/30 05:28:51;;;;;;;18.08;16.27;;;13.30;99.90;;;;;;5058133;28;20135;-39
2023/08/30 05:31:16;;;;;;;17.63;15.77;;;13.30;99.90;;;;;;5058952;28;20076;-39
2023/08/30 05:33:42;;;;;;;17.25;15.35;;;13.30;99.90;;;;;;5056482;28;20051;-39
2023/08/30 05:36:08;;;;;;;16.80;14.90;;;13.30;99.90;;;;;;5056711;28;20084;-39
2023/08/30 05:38:33;;;;;;;17.98;16.08;;;13.30;99.90;;;;;;5058214;28;20044;-39
2023/08/30 05:40:59;;;;;;;16.65;15.00;;;13.30;99.90;;;;;;5058105;28;20395;-39
2023/08/30 05:43:24;;;;;;;16.98;15.15;;;13.30;99.90;;;;;;5056859;28;20487;-39
2023/08/30 05:45:50;;;;;;;17.25;15.55;;;13.30;99.90;;;;;;5045499;28;20545;-39
2023/08/30 05:48:16;;;;;;;16.80;15.07;;;13.30;99.90;;;;;;5077102;28;20490;-39
2023/08/30 05:50:42;;;;;;;17.50;15.70;;;13.30;99.90;;;;;;5065131;28;20044;-38
2023/08/30 05:53:07;;;;;;;18.20;15.63;;;13.30;99.90;;;;;;5047723;28;20051;-39
2023/08/30 05:55:33;;;;;;;17.27;15.38;;;13.40;99.90;;;;;;5058702;28;20101;-39
2023/08/30 05:57:58;;;;;;;16.88;15.07;;;13.40;99.90;;;;;;5077414;28;20044;-39
2023/08/30 06:00:25;;;;;;;16.10;14.40;;;13.40;99.90;;;;;;5078765;28;20070;-38
2023/08/30 06:02:52;;;;;;;18.27;16.05;;;13.40;99.90;;;;;;5077800;28;20044;-39
2023/08/30 06:05:18;;;;;;;17.23;15.43;;;13.40;99.90;;;;;;5050497;28;20041;-39
2023/08/30 06:07:44;;;;;;;17.77;15.88;;;13.40;99.90;;;;;;5057259;28;20506;-39
2023/08/30 06:10:10;;;;;;;18.88;15.57;;;13.40;99.90;;;;;;5070914;28;20044;-38
2023/08/30 06:12:35;;;;;;;19.35;17.20;;;13.40;99.90;;;;;;5077157;28;20055;-38
2023/08/30 06:15:01;;;;;;;18.83;16.23;;;13.40;99.90;;;;;;5078183;28;20569;-38
2023/08/30 06:17:27;;;;;;;19.92;17.15;;;13.50;99.90;;;;;;5077539;28;20304;-39
2023/08/30 06:19:53;;;;;;;18.38;16.13;;;13.50;99.90;;;;;;5078418;28;20028;-39
2023/08/30 06:22:18;;;;;;;18.30;16.15;;;13.50;99.90;;;;;;5065983;28;20095;-39
2023/08/30 06:24:44;;;;;;;21.33;16.25;;;13.50;99.90;;;;;;5043407;28;20051;-40
2023/08/30 06:27:09;;;;;;;19.65;15.02;;;13.60;99.90;;;;;;5075937;28;20513;-39
2023/08/30 06:29:35;;;;;;;17.17;15.30;;;13.60;99.90;;;;;;5077512;28;20139;-39
2023/08/30 06:32:01;;;;;;;17.55;15.50;;;13.70;99.90;;;;;;5039496;28;20206;-39
2023/08/30 06:34:26;;;;;;;17.67;15.77;;;13.70;99.90;;;;;;5036906;28;20095;-38
2023/08/30 06:36:52;;;;;;;16.55;14.63;;;13.80;99.90;;;;;;5044363;28;20052;-39
2023/08/30 06:39:18;;;;;;;17.17;14.73;;;13.80;99.90;;;;;;5057087;28;20477;-39
2023/08/30 06:41:44;;;;;;;19.35;15.25;;;13.90;99.90;;;;;;5056242;28;20056;-39
2023/08/30 06:44:10;;;;;;;15.57;13.88;;;13.90;99.90;;;;;;5057245;28;20040;-39
2023/08/30 06:46:37;;;;;;;17.67;14.40;;;14.00;99.90;;;;;;5039746;28;20514;-40
2023/08/30 06:49:03;;;;;;;17.17;15.10;;;14.00;99.90;;;;;;5036752;28;20032;-39
2023/08/30 06:51:29;;;;;;;16.83;15.02;;;14.10;99.90;;;;;;5038593;28;20590;-39
2023/08/30 06:53:57;;;;;;;16.23;14.48;;;14.10;99.90;;;;;;5045177;28;20048;-39
2023/08/30 06:56:22;;;;;;;18.25;15.40;;;14.30;99.90;;;;;;5039359;28;20052;-39
2023/08/30 06:58:48;;;;;;;17.30;14.10;;;14.50;99.90;;;;;;5040517;28;20079;-39
2023/08/30 07:01:14;;;;;;;16.92;15.07;;;14.70;99.90;;;;;;5055788;28;20045;-39
2023/08/30 07:03:40;;;;;;;14.52;13.02;;;15.20;99.90;;;;;;5056442;28;20048;-39
2023/08/30 07:06:05;;;;;;;16.85;12.95;;;16.30;99.90;;;;;;5088840;28;20099;-41
2023/08/30 07:08:32;;;;;;;14.40;12.20;;;17.70;99.90;;;;;;5056103;28;20600;-39
2023/08/30 07:10:58;;;;;;;14.23;11.63;;;18.80;99.90;;;;;;5054407;28;20402;-40
2023/08/30 07:13:24;;;;;;;13.80;10.50;;;19.70;99.90;;;;;;5054352;28;20056;-39
2023/08/30 07:15:49;;;;;;;14.20;11.98;;;20.30;99.90;;;;;;5057362;28;20451;-40
2023/08/30 07:18:15;;;;;;;12.70;10.02;;;20.30;99.90;;;;;;5055740;28;20060;-39
2023/08/30 07:20:41;;;;;;;14.70;10.60;;;20.40;99.90;;;;;;5057099;28;20055;-39
2023/08/30 07:23:06;;;;;;;11.48;9.80;;;20.20;99.90;;;;;;5051233;28;20049;-39
2023/08/30 07:25:36;;;;;;;11.30;9.88;;;19.80;99.90;;;;;;5039664;28;20043;-40
2023/08/30 07:28:02;;;;;;;11.13;9.90;;;19.30;99.90;;;;;;5037173;28;20049;-39
2023/08/30 07:30:29;;;;;;;13.45;10.35;;;18.70;99.90;;;;;;5037959;28;20048;-40
2023/08/30 07:32:55;;;;;;;11.75;10.55;;;18.20;99.90;;;;;;5038252;28;20156;-39
2023/08/30 07:35:20;;;;;;;13.25;10.55;;;17.90;99.90;;;;;;5040569;28;20828;-40
2023/08/30 07:37:46;;;;;;;13.70;10.77;;;17.50;99.90;;;;;;5037554;28;20094;-39
2023/08/30 07:40:12;;;;;;;12.65;11.35;;;17.40;99.90;;;;;;5037548;28;20088;-40
2023/08/30 07:42:38;;;;;;;15.32;11.68;;;17.20;99.90;;;;;;5038132;28;20043;-39
2023/08/30 07:45:04;;;;;;;12.23;11.02;;;17.10;99.90;;;;;;5038269;28;20115;-40
2023/08/30 07:47:30;;;;;;;12.90;11.48;;;17.20;99.90;;;;;;5034105;28;20045;-40
2023/08/30 07:49:55;;;;;;;11.85;10.55;;;17.50;99.90;;;;;;5036998;28;20585;-40
2023/08/30 07:52:21;;;;;;;12.50;11.07;;;17.60;99.90;;;;;;5045375;28;20419;-39
2023/08/30 07:54:47;;;;;;;14.15;10.75;;;17.50;99.90;;;;;;5063197;28;20044;-40
2023/08/30 07:57:13;;;;;;;14.80;11.73;;;17.30;99.90;;;;;;5057271;28;20066;-40
2023/08/30 07:59:39;;;;;;;19.60;12.30;;;17.20;99.90;;;;;;5076116;28;20258;-40
2023/08/30 08:02:07;;;;;;;13.43;11.45;;;17.10;99.90;;;;;;5074807;28;20076;-39
2023/08/30 08:04:33;;;;;;;13.00;11.68;;;17.00;99.90;;;;;;5075495;28;20044;-40
2023/08/30 08:06:59;;;;;;;13.68;12.23;;;17.00;99.90;;;;;;5048395;28;20045;-40
2023/08/30 08:09:25;;;;;;;14.45;12.32;;;17.00;99.90;;;;;;5040508;28;20098;-39
2023/08/30 08:11:50;;;;;;;15.98;11.90;;;17.00;99.90;;;;;;5036240;28;20497;-39
2023/08/30 08:14:16;;;;;;;13.60;12.00;;;16.90;99.90;;;;;;5043745;28;20074;-40
2023/08/30 08:16:42;;;;;;;12.80;11.50;;;16.90;99.90;;;;;;5054927;28;20388;-39
2023/08/30 08:19:08;;;;;;;16.40;12.70;;;16.80;99.90;;;;;;5055151;28;20052;-39
2023/08/30 08:21:34;;;;;;;13.20;11.40;;;16.60;99.90;;;;;;5054261;28;20044;-40
2023/08/30 08:24:01;;;;;;;13.90;11.93;;;16.60;99.90;;;;;;5053111;28;20139;-40
2023/08/30 08:26:26;;;;;;;13.63;12.30;;;16.60;99.90;;;;;;5051045;28;20049;-39
2023/08/30 08:28:54;;;;;;;14.43;12.20;;;16.60;99.90;;;;;;5047918;28;20076;-39
2023/08/30 08:31:20;;;;;;;16.23;12.80;;;16.50;99.90;;;;;;5055627;28;20487;-39
2023/08/30 08:33:46;;;;;;;14.80;12.57;;;16.60;99.90;;;;;;5053226;28;20071;-39
2023/08/30 08:36:11;;;;;;;15.38;12.20;;;16.60;99.90;;;;;;5054761;28;20048;-39
2023/08/30 08:38:38;;;;;;;15.65;12.52;;;16.60;99.90;;;;;;5042766;28;20299;-41
2023/08/30 08:41:12;;;;;;;13.65;12.15;;;16.60;99.90;;;;;;5042797;28;20098;-40
2023/08/30 08:43:39;;;;;;;16.15;13.18;;;16.50;99.90;;;;;;5046940;28;20368;-39
2023/08/30 08:46:06;;;;;;;15.52;11.55;;;16.50;99.90;;;;;;5047773;28;20083;-39
2023/08/30 08:48:40;;;;;;;16.25;12.35;;;16.50;99.90;;;;;;5053450;28;20052;-39
2023/08/30 08:51:05;;;;;;;13.15;11.50;;;16.50;99.90;;;;;;5050932;28;20214;-39
2023/08/30 08:53:32;;;;;;;32.63;11.80;;;16.50;99.90;;;;;;5046083;28;20487;-39
2023/08/30 08:56:00;;;;;;;12.50;11.20;;;16.50;99.90;;;;;;5061353;28;20082;-39
2023/08/30 08:58:26;;;;;;;14.48;11.30;;;16.50;99.90;;;;;;5060483;28;20048;-39
2023/08/30 09:00:54;;;;;;;12.98;11.18;;;16.50;99.90;;;;;;5072193;28;20051;-39
2023/08/30 09:03:21;;;;;;;12.85;10.25;;;16.40;99.90;;;;;;5073148;28;20129;-39
2023/08/30 09:05:48;;;;;;;18.52;11.30;;;16.40;99.90;;;;;;5049263;28;20100;-39
2023/08/30 09:08:16;;;;;;;12.05;10.18;;;16.40;99.90;;;;;;5078676;28;20079;-40
2023/08/30 09:10:42;;;;;;;10.70;9.43;;;16.50;99.90;;;;;;5078853;28;20072;-39
2023/08/30 09:13:08;;;;;;;11.02;9.90;;;16.40;99.90;;;;;;5064440;28;20059;-39
2023/08/30 09:15:36;;;;;;;9.45;7.85;;;16.40;99.90;;;;;;5058528;28;20410;-40
2023/08/30 09:18:03;;;;;;;8.90;7.78;;;16.30;99.90;;;;;;5052712;28;20048;-40
2023/08/30 09:20:28;;;;;;;11.07;7.57;;;16.30;99.90;;;;;;5047878;28;20048;-39
2023/08/30 09:22:54;;;;;;;11.93;7.28;;;16.20;99.90;;;;;;5052149;28;20081;-39
2023/08/30 09:25:25;;;;;;;9.15;7.13;;;16.30;99.90;;;;;;5058605;28;20649;-40
2023/08/30 09:27:56;;;;;;;9.00;7.07;;;16.20;99.90;;;;;;5070568;28;20048;-40
2023/08/30 09:30:22;;;;;;;9.77;7.35;;;16.40;99.90;;;;;;5067543;28;20106;-40
2023/08/30 09:32:48;;;;;;;12.00;7.70;;;16.50;99.90;;;;;;5071313;28;20073;-40
2023/08/30 09:35:14;;;;;;;7.72;6.90;;;16.50;99.90;;;;;;5076916;28;20040;-39
2023/08/30 09:37:39;;;;;;;8.85;7.60;;;16.50;99.90;;;;;;5056846;28;20162;-39
2023/08/30 09:40:06;;;;;;;9.15;8.13;;;16.60;99.90;;;;;;5070155;28;20139;-40
2023/08/30 09:42:32;;;;;;;8.32;7.53;;;16.50;99.90;;;;;;5056969;28;20048;-40
2023/08/30 09:44:58;;;;;;;8.55;7.55;;;16.60;99.90;;;;;;5055058;28;20040;-39
2023/08/30 09:47:27;;;;;;;13.95;8.38;;;16.80;99.90;;;;;;5056109;28;20403;-39
2023/08/30 09:49:55;;;;;;;10.65;7.55;;;16.80;99.90;;;;;;5056960;28;20041;-41
2023/08/30 09:52:25;;;;;;;8.55;7.20;;;16.90;99.90;;;;;;5046145;28;20061;-40
2023/08/30 09:54:51;;;;;;;9.82;8.85;;;16.80;99.90;;;;;;5057360;28;20285;-40
2023/08/30 09:57:18;;;;;;;8.10;6.97;;;16.80;99.90;;;;;;5057262;28;20105;-40
2023/08/30 09:59:45;;;;;;;7.65;6.47;;;16.80;99.90;;;;;;5056387;28;20049;-40
2023/08/30 10:02:11;;;;;;;8.68;7.10;;;16.90;99.90;;;;;;5055111;28;20062;-39
2023/08/30 10:04:41;;;;;;;7.60;6.63;;;17.10;99.90;;;;;;5057544;28;20044;-39
2023/08/30 10:07:08;;;;;;;9.05;6.18;;;17.10;99.90;;;;;;5057024;28;20048;-40
2023/08/30 10:09:36;;;;;;;7.70;5.65;;;17.20;99.90;;;;;;5058388;28;20045;-39
2023/08/30 10:12:03;;;;;;;6.93;6.20;;;17.40;99.90;;;;;;5057550;28;20055;-39
2023/08/30 10:14:29;;;;;;;7.65;6.15;;;17.40;99.90;;;;;;5057529;28;20045;-40
2023/08/30 10:17:07;;;;;;;6.95;6.25;;;17.50;99.90;;;;;;5038902;28;20276;-40
2023/08/30 10:19:33;;;;;;;8.82;6.65;;;17.60;99.90;;;;;;5057685;28;20487;-40
2023/08/30 10:22:15;;;;;;;10.35;7.13;;;17.50;99.90;;;;;;5053876;28;20048;-40
2023/08/30 10:24:52;;;;;;;8.10;7.10;;;17.70;99.90;;;;;;5050985;28;20045;-40
2023/08/30 10:27:19;;;;;;;6.07;5.47;;;17.70;99.90;;;;;;5057218;28;20087;-40
2023/08/30 10:29:46;;;;;;;7.15;6.45;;;17.70;99.90;;;;;;5056982;28;20049;-40
2023/08/30 10:32:12;;;;;;;8.43;6.70;;;17.70;99.90;;;;;;5056557;28;20044;-39
2023/08/30 10:34:38;;;;;;;7.10;6.25;;;17.60;99.90;;;;;;5058531;28;20169;-40
2023/08/30 10:37:08;;;;;;;6.60;6.00;;;17.40;99.90;;;;;;5076970;28;20493;-40
2023/08/30 10:39:38;;;;;;;7.85;7.13;;;17.30;99.90;;;;;;5077178;28;20494;-40
2023/08/30 10:42:14;;;;;;;8.13;6.57;;;17.20;99.90;;;;;;5068330;28;20059;-40
2023/08/30 10:44:50;;;;;;;8.45;7.55;;;17.10;99.90;;;;;;5054194;28;20049;-40
2023/08/30 10:47:28;;;;;;;17.60;8.77;;;17.10;99.90;;;;;;5064224;28;20060;-41
2023/08/30 10:50:04;;;;;;;9.77;8.13;;;17.20;99.90;;;;;;5055653;28;20663;-40
2023/08/30 10:52:30;;;;;;;9.38;7.78;;;17.20;99.90;;;;;;5051266;28;20037;-40
2023/08/30 10:55:15;;;;;;;9.25;8.00;;;17.30;99.90;;;;;;5056132;28;20371;-40
2023/08/30 10:57:45;;;;;;;15.27;8.70;;;17.30;99.90;;;;;;5056335;28;20455;-41
2023/08/30 11:00:17;;;;;;;8.10;7.30;;;17.50;99.90;;;;;;5056567;28;20044;-41
2023/08/30 11:02:46;;;;;;;6.85;6.25;;;17.70;99.90;;;;;;5054322;28;20550;-40
2023/08/30 11:05:12;;;;;;;8.40;7.55;;;17.80;99.90;;;;;;5056494;28;20049;-40
2023/08/30 11:07:38;;;;;;;7.22;6.50;;;17.80;99.90;;;;;;5038464;28;20367;-40
2023/08/30 11:10:07;;;;;;;7.60;6.38;;;17.80;99.90;;;;;;5056733;28;20035;-42
2023/08/30 11:12:33;;;;;;;8.15;7.35;;;17.80;99.90;;;;;;5055943;28;20052;-40
2023/08/30 11:14:59;;;;;;;6.93;6.32;;;17.80;99.90;;;;;;5056011;28;20072;-40
2023/08/30 11:17:26;;;;;;;7.65;6.90;;;17.80;99.90;;;;;;5055517;28;20172;-40
2023/08/30 11:20:04;;;;;;;8.60;7.72;;;17.70;99.90;;;;;;5056280;28;20470;-40
2023/08/30 11:22:30;;;;;;;8.40;7.60;;;17.60;99.90;;;;;;5055994;28;20037;-40
2023/08/30 11:24:56;;;;;;;9.57;8.48;;;17.50;99.90;;;;;;5055253;28;20067;-40
2023/08/30 11:27:21;;;;;;;10.00;9.00;;;17.40;99.90;;;;;;5037792;28;20059;-40
2023/08/30 11:29:47;;;;;;;10.35;8.68;;;17.20;99.90;;;;;;5056366;28;20526;-40
2023/08/30 11:32:13;;;;;;;9.40;8.13;;;17.20;99.90;;;;;;5054734;28;20044;-39
2023/08/30 11:34:38;;;;;;;10.65;9.20;;;17.20;99.90;;;;;;5055255;28;20048;-39
2023/08/30 11:37:04;;;;;;;9.32;8.10;;;17.10;99.90;;;;;;5054758;28;20420;-40
2023/08/30 11:39:30;;;;;;;8.98;8.10;;;17.00;99.90;;;;;;5054059;28;20040;-40
2023/08/30 11:41:59;;;;;;;11.00;8.85;;;17.00;99.90;;;;;;5054892;28;20659;-40
2023/08/30 11:44:28;;;;;;;10.38;9.38;;;16.90;99.90;;;;;;5053051;28;20087;-40
2023/08/30 11:47:00;;;;;;;11.15;10.15;;;16.80;99.90;;;;;;5051047;28;20483;-40
2023/08/30 11:49:27;;;;;;;11.18;10.02;;;16.80;99.90;;;;;;5073719;28;20111;-39
2023/08/30 11:51:56;;;;;;;11.52;10.43;;;16.70;99.90;;;;;;5050446;28;20704;-40
2023/08/30 11:54:23;;;;;;;13.15;11.70;;;16.70;99.90;;;;;;5062211;28;20136;-40
2023/08/30 11:56:50;;;;;;;13.15;11.82;;;16.60;99.90;;;;;;5087303;28;20479;-40
2023/08/30 11:59:22;;;;;;;12.10;10.90;;;16.60;99.90;;;;;;5054482;28;20129;-40
2023/08/30 12:01:54;;;;;;;12.23;10.93;;;16.60;99.90;;;;;;5054204;28;20045;-40
2023/08/30 12:04:20;;;;;;;13.77;12.18;;;16.50;99.90;;;;;;5067794;28;20226;-40
2023/08/30 12:06:55;;;;;;;13.80;11.90;;;16.40;99.90;;;;;;5054644;28;20053;-40
2023/08/30 12:09:21;;;;;;;13.57;12.15;;;16.30;99.90;;;;;;5049149;28;20040;-40
2023/08/30 12:11:50;;;;;;;12.82;11.57;;;16.30;99.90;;;;;;5075559;28;20067;-44
2023/08/30 12:14:16;;;;;;;19.40;12.60;;;16.20;99.90;;;;;;5076301;28;20044;-40
2023/08/30 12:16:42;;;;;;;18.48;11.63;;;16.10;99.90;;;;;;5073450;28;20047;-40
2023/08/30 12:19:10;;;;;;;13.25;11.63;;;16.10;99.90;;;;;;5062978;28;20096;-40
2023/08/30 12:21:47;;;;;;;14.48;12.30;;;16.10;99.90;;;;;;5055918;28;20145;-40
2023/08/30 12:24:13;;;;;;;11.85;10.65;;;16.10;99.90;;;;;;5044199;28;20764;-39
2023/08/30 12:26:38;;;;;;;17.52;13.73;;;16.00;99.90;;;;;;5068114;28;20042;-41
2023/08/30 12:29:07;;;;;;;14.63;13.13;;;16.00;99.90;;;;;;5065180;28;20493;-40